Time;durP1;ratioP1;P1;durP2;ratioP2;P2;SDS_P1;SDS_P2;PMS_P1;PMS_P2;Temp;Humidity;BMP_temperature;BMP_pressure;BME280_temperature;BME280_humidity;BME280_pressure;Samples;Min_cycle;Max_cycle;Signal;HPM_P1;HPM_P2
2023/05/09 00:01:52;;;;;;;18.83;13.98;;;14.90;99.90;;;;;;5044272;28;20175;-59
2023/05/09 00:04:19;;;;;;;14.93;13.15;;;14.80;99.90;;;;;;5042455;28;20095;-55
2023/05/09 00:06:44;;;;;;;18.02;13.20;;;14.80;99.90;;;;;;5043535;28;20036;-61
2023/05/09 00:09:11;;;;;;;14.68;13.07;;;14.80;99.90;;;;;;5043437;28;20037;-59
2023/05/09 00:11:37;;;;;;;16.30;13.02;;;14.80;99.90;;;;;;5043730;28;20232;-61
2023/05/09 00:14:03;;;;;;;14.70;12.93;;;14.80;99.90;;;;;;5043749;28;20045;-55
2023/05/09 00:16:31;;;;;;;15.43;12.57;;;14.80;99.90;;;;;;5043565;28;20499;-55
2023/05/09 00:18:57;;;;;;;15.20;12.50;;;14.80;99.90;;;;;;5043813;28;20041;-61
2023/05/09 00:21:23;;;;;;;15.65;12.38;;;14.70;99.90;;;;;;5043656;28;20041;-54
2023/05/09 00:23:49;;;;;;;13.70;12.25;;;14.70;99.90;;;;;;5042627;28;20067;-59
2023/05/09 00:26:15;;;;;;;16.00;12.00;;;14.70;99.90;;;;;;5043998;28;20481;-59
2023/05/09 00:28:41;;;;;;;17.92;12.25;;;14.70;99.90;;;;;;5042264;28;20363;-60
2023/05/09 00:31:06;;;;;;;13.60;12.20;;;14.60;99.90;;;;;;5041980;28;20682;-61
2023/05/09 00:33:32;;;;;;;15.43;12.52;;;14.60;99.90;;;;;;5043286;28;20555;-53
2023/05/09 00:35:58;;;;;;;14.25;12.77;;;14.60;99.90;;;;;;5043540;28;20041;-61
2023/05/09 00:38:23;;;;;;;13.75;12.10;;;14.50;99.90;;;;;;5041339;28;20420;-57
2023/05/09 00:40:49;;;;;;;14.63;12.35;;;14.60;99.90;;;;;;5042557;28;20503;-58
2023/05/09 00:43:15;;;;;;;13.65;12.18;;;14.50;99.90;;;;;;5043885;28;20056;-59
2023/05/09 00:45:42;;;;;;;13.82;12.32;;;14.40;99.90;;;;;;5042969;28;20084;-55
2023/05/09 00:48:08;;;;;;;15.27;12.30;;;14.40;99.90;;;;;;5042973;28;20120;-62
2023/05/09 00:50:34;;;;;;;16.50;12.15;;;14.40;99.90;;;;;;5043111;28;20551;-54
2023/05/09 00:53:00;;;;;;;13.30;11.90;;;14.40;99.90;;;;;;5042340;28;20100;-57
2023/05/09 00:55:26;;;;;;;15.77;13.32;;;14.30;99.90;;;;;;5042413;28;20045;-60
2023/05/09 00:57:52;;;;;;;16.80;13.38;;;14.30;99.90;;;;;;5042605;28;20106;-57
2023/05/09 01:00:17;;;;;;;15.38;12.50;;;14.20;99.90;;;;;;5043331;28;20136;-56
2023/05/09 01:02:47;;;;;;;14.30;12.80;;;14.20;99.90;;;;;;5042530;28;20080;-55
2023/05/09 01:05:13;;;;;;;14.85;12.43;;;14.20;99.90;;;;;;5043118;28;20044;-59
2023/05/09 01:07:55;;;;;;;15.00;12.05;;;14.20;99.90;;;;;;5106489;22;20068;-55
2023/05/09 01:10:43;;;;;;;13.40;12.02;;;14.20;99.90;;;;;;5045542;28;20140;-60
2023/05/09 01:13:36;;;;;;;13.70;12.10;;;14.20;99.90;;;;;;5045710;28;20466;-59
2023/05/09 01:16:22;;;;;;;15.82;13.00;;;14.20;99.90;;;;;;5043976;28;20084;-61
2023/05/09 01:19:23;;;;;;;14.45;12.93;;;14.20;99.90;;;;;;5044616;28;20543;-57
2023/05/09 01:21:51;;;;;;;13.50;12.07;;;14.10;99.90;;;;;;5044659;28;20044;-57
2023/05/09 01:24:32;;;;;;;14.60;13.10;;;14.00;99.90;;;;;;5045478;28;20048;-57
2023/05/09 01:27:32;;;;;;;16.83;12.82;;;14.00;99.90;;;;;;5044769;28;20045;-59
2023/05/09 01:29:59;;;;;;;13.73;12.30;;;14.00;99.90;;;;;;5045056;28;20099;-58
2023/05/09 01:32:27;;;;;;;19.52;12.15;;;13.90;99.90;;;;;;5044987;28;20033;-60
2023/05/09 01:34:59;;;;;;;14.30;11.98;;;13.90;99.90;;;;;;5044421;28;20048;-58
2023/05/09 01:37:30;;;;;;;12.95;11.38;;;13.90;99.90;;;;;;5044961;28;20451;-56
2023/05/09 01:40:00;;;;;;;12.38;11.10;;;13.90;99.90;;;;;;5042736;28;20052;-57
2023/05/09 01:42:32;;;;;;;12.38;10.85;;;13.90;99.90;;;;;;5044716;28;20085;-60
2023/05/09 01:44:59;;;;;;;13.45;11.10;;;14.00;99.90;;;;;;5045467;28;20084;-61
2023/05/09 01:47:25;;;;;;;13.32;11.30;;;13.90;99.90;;;;;;5044613;28;20049;-60
2023/05/09 01:49:52;;;;;;;13.35;11.95;;;13.90;99.90;;;;;;5043772;28;20040;-57
2023/05/09 01:52:19;;;;;;;15.50;12.50;;;13.80;99.90;;;;;;5044422;28;20063;-60
2023/05/09 01:54:46;;;;;;;14.57;11.68;;;13.90;99.90;;;;;;5041673;28;20037;-57
2023/05/09 01:57:13;;;;;;;13.70;12.30;;;13.90;99.90;;;;;;5044330;28;20116;-58
2023/05/09 01:59:41;;;;;;;18.08;12.07;;;13.90;99.90;;;;;;5044183;28;20080;-53
2023/05/09 02:02:07;;;;;;;15.63;11.85;;;13.90;99.90;;;;;;5043907;28;20079;-59
2023/05/09 02:04:35;;;;;;;14.38;11.50;;;13.90;99.90;;;;;;5044547;28;20041;-57
2023/05/09 02:07:01;;;;;;;17.15;12.25;;;13.90;99.90;;;;;;5044470;28;20359;-60
2023/05/09 02:09:27;;;;;;;13.02;11.40;;;13.90;99.90;;;;;;5042995;28;20475;-55
2023/05/09 02:11:53;;;;;;;13.27;10.95;;;13.90;99.90;;;;;;5044262;28;20049;-56
2023/05/09 02:14:19;;;;;;;12.88;11.52;;;14.00;99.90;;;;;;5044602;28;20037;-58
2023/05/09 02:16:44;;;;;;;15.18;12.35;;;14.00;99.90;;;;;;5044418;28;20435;-59
2023/05/09 02:19:10;;;;;;;14.02;12.48;;;14.00;99.90;;;;;;5044143;28;20044;-61
2023/05/09 02:21:36;;;;;;;14.90;12.27;;;14.00;99.90;;;;;;5044415;28;20682;-56
2023/05/09 02:24:02;;;;;;;14.00;12.32;;;13.90;99.90;;;;;;5044151;28;20170;-61
2023/05/09 02:26:28;;;;;;;14.32;12.05;;;14.00;99.90;;;;;;5043373;28;20041;-54
2023/05/09 02:28:55;;;;;;;14.65;11.73;;;14.00;99.90;;;;;;5044027;28;20145;-58
2023/05/09 02:31:23;;;;;;;13.90;11.88;;;14.10;99.90;;;;;;5044686;28;20051;-53
2023/05/09 02:33:51;;;;;;;13.80;12.00;;;14.00;99.90;;;;;;5044050;28;20458;-61
2023/05/09 02:36:18;;;;;;;16.95;12.38;;;14.00;99.90;;;;;;5044277;28;20175;-56
2023/05/09 02:38:44;;;;;;;14.23;12.73;;;14.00;99.90;;;;;;5042967;28;20758;-54
2023/05/09 02:41:14;;;;;;;14.98;11.95;;;14.00;99.90;;;;;;5043124;28;20049;-56
2023/05/09 02:43:40;;;;;;;17.25;13.38;;;14.00;99.90;;;;;;5044149;28;20087;-61
2023/05/09 02:46:07;;;;;;;14.02;12.18;;;14.00;99.90;;;;;;5044669;28;20487;-59
2023/05/09 02:48:33;;;;;;;14.77;12.82;;;14.00;99.90;;;;;;5042781;28;20048;-61
2023/05/09 02:50:59;;;;;;;14.35;12.75;;;14.00;99.90;;;;;;5044204;28;20041;-56
2023/05/09 02:53:24;;;;;;;14.40;12.73;;;14.00;99.90;;;;;;5043865;28;20051;-56
2023/05/09 02:55:50;;;;;;;15.82;12.60;;;13.90;99.90;;;;;;5044065;28;20120;-61
2023/05/09 02:58:16;;;;;;;17.10;13.98;;;13.90;99.90;;;;;;5043287;28;20048;-54
2023/05/09 03:00:41;;;;;;;15.57;13.75;;;13.90;99.90;;;;;;5043141;28;20060;-61
2023/05/09 03:03:07;;;;;;;16.63;13.73;;;13.90;99.90;;;;;;5044552;28;20041;-60
2023/05/09 03:05:33;;;;;;;18.67;14.07;;;13.90;99.90;;;;;;5043317;28;20132;-56
2023/05/09 03:07:59;;;;;;;19.35;14.30;;;13.90;99.90;;;;;;5042524;28;20057;-59
2023/05/09 03:10:24;;;;;;;18.23;13.85;;;13.90;99.90;;;;;;5044051;28;20048;-57
2023/05/09 03:12:50;;;;;;;16.40;13.90;;;13.90;99.90;;;;;;5042719;28;20079;-57
2023/05/09 03:15:16;;;;;;;20.73;14.63;;;13.90;99.90;;;;;;5043670;28;20118;-60
2023/05/09 03:17:41;;;;;;;18.88;14.25;;;13.80;99.90;;;;;;5043672;28;20064;-58
2023/05/09 03:20:09;;;;;;;16.83;15.02;;;13.90;99.90;;;;;;5043752;28;20045;-61
2023/05/09 03:22:35;;;;;;;17.23;15.35;;;13.80;99.90;;;;;;5042381;28;20056;-53
2023/05/09 03:25:01;;;;;;;19.45;15.38;;;13.80;99.90;;;;;;5043526;28;20107;-61
2023/05/09 03:27:26;;;;;;;19.15;16.13;;;13.80;99.90;;;;;;5042356;28;20049;-58
2023/05/09 03:29:52;;;;;;;17.48;15.57;;;13.80;99.90;;;;;;5042620;28;20076;-56
2023/05/09 03:32:17;;;;;;;16.33;14.45;;;13.80;99.90;;;;;;5043750;28;20487;-53
2023/05/09 03:34:43;;;;;;;17.50;14.95;;;13.80;99.90;;;;;;5042753;28;20041;-55
2023/05/09 03:37:09;;;;;;;16.95;14.98;;;13.80;99.90;;;;;;5042743;28;20041;-60
2023/05/09 03:39:34;;;;;;;17.95;15.30;;;13.80;99.90;;;;;;5041711;28;20056;-56
2023/05/09 03:42:00;;;;;;;17.17;15.27;;;13.70;99.90;;;;;;5042716;28;20089;-57
2023/05/09 03:44:25;;;;;;;19.08;15.23;;;13.80;99.90;;;;;;5043032;28;20129;-61
2023/05/09 03:46:51;;;;;;;17.95;16.10;;;13.70;99.90;;;;;;5042002;28;20124;-54
2023/05/09 03:49:17;;;;;;;18.10;15.57;;;13.70;99.90;;;;;;5043437;28;20049;-60
2023/05/09 03:51:42;;;;;;;17.00;15.30;;;13.80;99.90;;;;;;5043342;28;20055;-57
2023/05/09 03:54:08;;;;;;;18.95;15.85;;;13.70;99.90;;;;;;5041120;28;20136;-50
2023/05/09 03:56:34;;;;;;;20.23;16.40;;;13.70;99.90;;;;;;5042347;28;20399;-61
2023/05/09 03:58:59;;;;;;;19.65;16.42;;;13.70;99.90;;;;;;5043793;28;20053;-59
2023/05/09 04:01:25;;;;;;;18.67;16.02;;;13.70;99.90;;;;;;5043406;28;20487;-56
2023/05/09 04:03:51;;;;;;;21.17;17.10;;;13.70;99.90;;;;;;5042829;28;20431;-61
2023/05/09 04:06:17;;;;;;;19.73;17.55;;;13.60;99.90;;;;;;5042903;28;20041;-56
2023/05/09 04:08:43;;;;;;;25.83;16.60;;;13.60;99.90;;;;;;5042621;28;20060;-61
2023/05/09 04:11:09;;;;;;;19.77;17.20;;;13.60;99.90;;;;;;5042684;28;20037;-54
2023/05/09 04:13:35;;;;;;;18.67;16.65;;;13.60;99.90;;;;;;5045486;28;20826;-60
2023/05/09 04:16:01;;;;;;;20.83;16.92;;;13.60;99.90;;;;;;5046861;28;20056;-58
2023/05/09 04:18:27;;;;;;;19.30;17.17;;;13.60;99.90;;;;;;5046538;28;20044;-54
2023/05/09 04:20:53;;;;;;;20.02;16.77;;;13.60;99.90;;;;;;5046727;28;20041;-61
2023/05/09 04:23:18;;;;;;;19.20;17.05;;;13.60;99.90;;;;;;5045434;28;20488;-55
2023/05/09 04:25:44;;;;;;;19.20;16.83;;;13.60;99.90;;;;;;5045664;28;20560;-60
2023/05/09 04:28:10;;;;;;;19.73;16.88;;;13.60;99.90;;;;;;5044551;28;20056;-61
2023/05/09 04:30:36;;;;;;;19.10;16.63;;;13.60;99.90;;;;;;5046360;28;20682;-54
2023/05/09 04:33:02;;;;;;;20.85;16.77;;;13.60;99.90;;;;;;5045362;28;20048;-59
2023/05/09 04:35:27;;;;;;;21.50;16.83;;;13.60;99.90;;;;;;5046110;28;20037;-57
2023/05/09 04:37:53;;;;;;;20.77;16.98;;;13.60;99.90;;;;;;5045509;28;20102;-54
2023/05/09 04:40:19;;;;;;;21.88;18.15;;;13.60;99.90;;;;;;5046313;28;20106;-61
2023/05/09 04:42:44;;;;;;;20.50;17.50;;;13.70;99.90;;;;;;5045070;28;20524;-55
2023/05/09 04:45:10;;;;;;;21.45;18.35;;;13.70;99.90;;;;;;5045939;28;20041;-57
2023/05/09 04:47:36;;;;;;;22.17;17.95;;;13.70;99.90;;;;;;5046196;28;20712;-57
2023/05/09 04:50:02;;;;;;;24.42;19.17;;;13.70;99.90;;;;;;5046368;28;20056;-53
2023/05/09 04:52:28;;;;;;;20.92;18.67;;;13.70;99.90;;;;;;5045225;28;20045;-60
2023/05/09 04:54:54;;;;;;;22.40;18.73;;;13.70;99.90;;;;;;5044764;28;20037;-58
2023/05/09 04:57:20;;;;;;;21.70;19.10;;;13.70;99.90;;;;;;5044556;28;20041;-61
2023/05/09 04:59:46;;;;;;;24.25;19.13;;;13.70;99.90;;;;;;5044913;28;20056;-52
2023/05/09 05:02:12;;;;;;;27.15;19.52;;;13.80;99.90;;;;;;5045516;28;20036;-58
2023/05/09 05:04:37;;;;;;;22.63;18.42;;;13.80;99.90;;;;;;5046258;28;20722;-60
2023/05/09 05:07:04;;;;;;;22.75;19.45;;;13.80;99.90;;;;;;5044980;28;20130;-52
2023/05/09 05:09:29;;;;;;;24.02;19.67;;;13.80;99.90;;;;;;5046263;28;20049;-60
2023/05/09 05:11:55;;;;;;;23.15;20.17;;;13.80;99.90;;;;;;5044548;28;20051;-54
2023/05/09 05:14:21;;;;;;;24.50;19.73;;;13.80;99.90;;;;;;5045592;28;20044;-60
2023/05/09 05:16:46;;;;;;;25.88;20.80;;;13.90;99.90;;;;;;5043458;28;20084;-60
2023/05/09 05:19:12;;;;;;;23.88;20.42;;;13.90;99.90;;;;;;5045392;28;20049;-58
2023/05/09 05:21:38;;;;;;;24.70;21.15;;;13.90;99.90;;;;;;5045186;28;20049;-60
2023/05/09 05:24:04;;;;;;;24.83;21.73;;;14.00;99.90;;;;;;5043905;28;20037;-56
2023/05/09 05:26:29;;;;;;;24.92;21.52;;;14.00;99.90;;;;;;5045603;28;20049;-52
2023/05/09 05:28:56;;;;;;;27.00;21.88;;;14.00;99.90;;;;;;5045661;28;20476;-61
2023/05/09 05:31:21;;;;;;;26.80;20.75;;;14.10;99.90;;;;;;5045267;28;20045;-53
2023/05/09 05:33:47;;;;;;;25.45;19.80;;;14.10;99.90;;;;;;5044810;28;20136;-61
2023/05/09 05:36:13;;;;;;;23.77;21.13;;;14.20;99.90;;;;;;5045490;28;20041;-55
2023/05/09 05:38:38;;;;;;;27.08;22.25;;;14.20;99.90;;;;;;5044384;28;20041;-60
2023/05/09 05:41:04;;;;;;;25.33;22.20;;;14.20;99.90;;;;;;5045909;28;20568;-59
2023/05/09 05:43:30;;;;;;;25.98;21.90;;;14.20;99.90;;;;;;5043389;28;20565;-57
2023/05/09 05:45:55;;;;;;;24.63;21.95;;;14.30;99.90;;;;;;5044533;28;20393;-50
2023/05/09 05:48:21;;;;;;;26.00;21.88;;;14.30;99.90;;;;;;5044032;28;20045;-52
2023/05/09 05:50:47;;;;;;;23.70;21.13;;;14.30;99.90;;;;;;5043967;28;20098;-59
2023/05/09 05:53:13;;;;;;;27.77;23.00;;;14.30;99.90;;;;;;5041450;28;20053;-60
2023/05/09 05:55:38;;;;;;;24.83;21.40;;;14.30;99.90;;;;;;5044922;28;20067;-55
2023/05/09 05:58:04;;;;;;;26.13;22.08;;;14.40;99.90;;;;;;5044699;28;20440;-59
2023/05/09 06:00:30;;;;;;;25.13;22.45;;;14.40;99.90;;;;;;5044183;28;20121;-58
2023/05/09 06:02:55;;;;;;;26.85;21.98;;;14.50;99.90;;;;;;5044128;28;20079;-56
2023/05/09 06:05:21;;;;;;;25.67;21.33;;;14.50;99.90;;;;;;5043116;28;20545;-58
2023/05/09 06:07:47;;;;;;;24.98;21.10;;;14.60;99.90;;;;;;5043022;28;20436;-56
2023/05/09 06:10:14;;;;;;;25.02;22.08;;;14.60;99.90;;;;;;5044353;28;20044;-56
2023/05/09 06:12:40;;;;;;;27.25;21.95;;;14.60;99.90;;;;;;5044033;28;20051;-53
2023/05/09 06:15:06;;;;;;;28.40;21.42;;;14.70;99.90;;;;;;5044795;28;20466;-59
2023/05/09 06:17:33;;;;;;;25.05;22.33;;;14.70;99.90;;;;;;5044733;28;20036;-54
2023/05/09 06:19:58;;;;;;;25.42;21.52;;;14.60;99.90;;;;;;5043913;28;20164;-59
2023/05/09 06:22:24;;;;;;;27.35;22.33;;;14.70;99.90;;;;;;5042670;28;20072;-55
2023/05/09 06:24:50;;;;;;;24.40;21.05;;;14.70;99.90;;;;;;5042914;28;20033;-55
2023/05/09 06:27:15;;;;;;;24.60;20.88;;;14.70;99.90;;;;;;5043243;28;20052;-59
2023/05/09 06:29:41;;;;;;;27.80;21.75;;;14.80;99.90;;;;;;5043077;28;20079;-56
2023/05/09 06:32:07;;;;;;;24.85;21.08;;;14.80;99.90;;;;;;5043802;28;20051;-59
2023/05/09 06:34:32;;;;;;;23.35;19.60;;;14.80;99.90;;;;;;5043611;28;20063;-59
2023/05/09 06:36:58;;;;;;;26.13;20.75;;;14.80;99.90;;;;;;5042595;28;20044;-53
2023/05/09 06:39:24;;;;;;;24.42;19.98;;;14.80;99.90;;;;;;5043637;28;20045;-59
2023/05/09 06:41:49;;;;;;;23.00;20.00;;;14.90;99.90;;;;;;5043655;28;20142;-52
2023/05/09 06:44:15;;;;;;;26.02;20.65;;;14.80;99.90;;;;;;5041945;28;20091;-61
2023/05/09 06:46:40;;;;;;;23.00;20.30;;;14.90;99.90;;;;;;5033421;28;20033;-58
2023/05/09 06:49:06;;;;;;;24.80;19.90;;;15.00;99.90;;;;;;5032580;28;20043;-52
2023/05/09 06:51:32;;;;;;;25.42;21.83;;;15.00;99.90;;;;;;5034310;28;20061;-59
2023/05/09 06:53:57;;;;;;;23.30;19.33;;;15.10;99.90;;;;;;5042565;28;20592;-56
2023/05/09 06:56:24;;;;;;;24.80;19.98;;;15.10;99.90;;;;;;5041164;28;20324;-59
2023/05/09 06:58:50;;;;;;;23.27;19.83;;;15.10;99.90;;;;;;5041421;28;20400;-60
2023/05/09 07:01:16;;;;;;;24.08;19.00;;;15.20;99.90;;;;;;5040635;28;20396;-56
2023/05/09 07:03:42;;;;;;;22.95;19.95;;;15.20;99.90;;;;;;5039287;28;20049;-59
2023/05/09 07:06:08;;;;;;;26.08;20.42;;;15.20;99.90;;;;;;5041199;28;20081;-54
2023/05/09 07:08:34;;;;;;;26.65;20.52;;;15.30;99.90;;;;;;5039855;28;20088;-59
2023/05/09 07:10:59;;;;;;;24.27;19.60;;;15.30;99.90;;;;;;5040630;28;20071;-60
2023/05/09 07:13:25;;;;;;;23.75;20.30;;;15.30;99.90;;;;;;5040590;28;20068;-55
2023/05/09 07:15:51;;;;;;;23.98;19.33;;;15.40;99.90;;;;;;5041077;28;20087;-57
2023/05/09 07:18:16;;;;;;;23.48;19.55;;;15.50;99.90;;;;;;5037550;28;20072;-54
2023/05/09 07:20:42;;;;;;;22.45;20.05;;;15.60;99.90;;;;;;5031694;28;20942;-55
2023/05/09 07:23:07;;;;;;;25.67;20.65;;;15.60;99.90;;;;;;5029887;28;20037;-59
2023/05/09 07:25:33;;;;;;;23.52;19.15;;;15.70;99.90;;;;;;5037834;28;20113;-54
2023/05/09 07:27:59;;;;;;;22.52;19.20;;;15.70;99.90;;;;;;5038545;28;20477;-58
2023/05/09 07:30:24;;;;;;;22.25;19.38;;;15.70;99.90;;;;;;5037835;28;20068;-56
2023/05/09 07:32:50;;;;;;;22.13;19.23;;;15.80;99.90;;;;;;5028829;28;20045;-61
2023/05/09 07:35:17;;;;;;;24.95;20.13;;;15.80;99.90;;;;;;5030439;28;20563;-57
2023/05/09 07:37:43;;;;;;;23.33;19.83;;;15.80;99.90;;;;;;5029484;28;20400;-53
2023/05/09 07:40:09;;;;;;;22.38;19.20;;;15.80;99.90;;;;;;5029656;28;20048;-58
2023/05/09 07:42:34;;;;;;;23.98;21.38;;;15.70;99.90;;;;;;5032453;28;20045;-56
2023/05/09 07:45:00;;;;;;;25.70;20.63;;;15.70;99.90;;;;;;5040309;28;20695;-54
2023/05/09 07:47:26;;;;;;;29.48;21.52;;;15.70;99.90;;;;;;5043063;28;20037;-61
2023/05/09 07:49:51;;;;;;;24.60;20.55;;;15.80;99.90;;;;;;5040957;28;20044;-59
2023/05/09 07:52:17;;;;;;;26.00;21.15;;;15.80;99.90;;;;;;5026704;28;20033;-62
2023/05/09 07:54:46;;;;;;;27.70;21.40;;;15.70;99.90;;;;;;5048164;28;20051;-55
2023/05/09 07:57:11;;;;;;;29.13;20.95;;;15.60;99.90;;;;;;5038599;28;20098;-65
2023/05/09 07:59:37;;;;;;;29.02;21.30;;;15.60;99.90;;;;;;5034422;28;20037;-62
2023/05/09 08:02:03;;;;;;;28.55;22.35;;;15.60;99.90;;;;;;5035564;28;20052;-59
2023/05/09 08:04:28;;;;;;;27.73;22.27;;;15.60;99.90;;;;;;5046174;28;20044;-64
2023/05/09 08:06:54;;;;;;;30.40;22.75;;;15.60;99.90;;;;;;5045894;28;20048;-58
2023/05/09 08:09:20;;;;;;;30.73;22.55;;;15.70;99.90;;;;;;5046308;28;20056;-66
2023/05/09 08:11:46;;;;;;;27.65;23.23;;;15.60;99.90;;;;;;5045007;28;20049;-61
2023/05/09 08:14:11;;;;;;;28.65;23.20;;;15.70;99.90;;;;;;5045426;28;20389;-58
2023/05/09 08:16:37;;;;;;;29.98;24.05;;;15.60;99.90;;;;;;5044057;28;20041;-61
2023/05/09 08:19:03;;;;;;;31.33;24.02;;;15.70;99.90;;;;;;5043901;28;20588;-58
2023/05/09 08:21:28;;;;;;;31.60;23.05;;;15.70;99.90;;;;;;5043647;28;20447;-63
2023/05/09 08:23:54;;;;;;;34.40;22.83;;;15.70;99.90;;;;;;5042160;28;20279;-63
2023/05/09 08:26:21;;;;;;;38.58;26.00;;;15.70;99.90;;;;;;5043615;28;20056;-56
2023/05/09 08:28:48;;;;;;;36.97;24.60;;;15.70;99.90;;;;;;5038639;28;20166;-60
2023/05/09 08:31:13;;;;;;;39.97;26.17;;;15.70;99.90;;;;;;5026648;28;20041;-52
2023/05/09 08:33:39;;;;;;;40.55;27.13;;;15.70;99.90;;;;;;5026525;28;20052;-52
2023/05/09 08:36:05;;;;;;;44.03;30.08;;;15.60;99.90;;;;;;5026971;28;20044;-59
2023/05/09 08:38:30;;;;;;;51.47;32.15;;;15.70;99.90;;;;;;5025932;28;20399;-62
2023/05/09 08:41:00;;;;;;;51.13;32.70;;;15.70;99.90;;;;;;5025861;28;20053;-61
2023/05/09 08:43:28;;;;;;;49.35;33.92;;;15.60;99.90;;;;;;5024727;28;20095;-61
2023/05/09 08:45:59;;;;;;;55.95;31.60;;;15.60;99.90;;;;;;5026672;28;20395;-60
2023/05/09 08:48:25;;;;;;;52.00;32.05;;;15.50;99.90;;;;;;5022078;28;20045;-54
2023/05/09 08:50:52;;;;;;;53.05;34.08;;;15.60;99.90;;;;;;5023522;28;20462;-59
2023/05/09 08:53:18;;;;;;;60.03;35.90;;;15.70;99.90;;;;;;5022747;28;20604;-64
2023/05/09 08:55:44;;;;;;;57.05;34.28;;;15.80;99.90;;;;;;5023208;28;20438;-57
2023/05/09 08:58:12;;;;;;;55.35;34.67;;;15.80;99.90;;;;;;5022527;28;20106;-62
2023/05/09 09:00:40;;;;;;;52.33;32.03;;;15.90;99.90;;;;;;5023650;28;20037;-62
2023/05/09 09:03:06;;;;;;;51.80;30.63;;;16.00;99.90;;;;;;5022574;28;20670;-64
2023/05/09 09:05:35;;;;;;;51.10;33.33;;;16.00;99.90;;;;;;5023346;28;20463;-56
2023/05/09 09:08:02;;;;;;;51.22;31.98;;;16.10;99.90;;;;;;5025441;28;20080;-64
2023/05/09 09:10:30;;;;;;;47.50;31.63;;;16.20;99.90;;;;;;5025709;28;20124;-62
2023/05/09 09:12:57;;;;;;;47.35;31.45;;;16.30;99.90;;;;;;5025251;28;20072;-63
2023/05/09 09:15:27;;;;;;;51.88;33.47;;;16.40;99.90;;;;;;5022895;28;20093;-58
2023/05/09 09:17:57;;;;;;;47.70;30.90;;;16.50;99.90;;;;;;5022408;28;20041;-59
2023/05/09 09:20:26;;;;;;;49.45;30.48;;;16.60;99.90;;;;;;5020951;28;20131;-59
2023/05/09 09:22:56;;;;;;;51.03;31.02;;;16.70;99.90;;;;;;5022471;28;20049;-57
2023/05/09 09:25:22;;;;;;;48.97;30.45;;;16.80;99.90;;;;;;5022229;28;20041;-64
2023/05/09 09:27:47;;;;;;;46.00;29.58;;;16.90;99.90;;;;;;5024849;28;20041;-60
2023/05/09 09:30:13;;;;;;;43.97;24.98;;;17.00;99.90;;;;;;5040358;28;20037;-63
2023/05/09 09:32:39;;;;;;;51.10;31.52;;;17.00;99.90;;;;;;5040206;28;20059;-64
2023/05/09 09:35:10;;;;;;;43.05;28.98;;;17.00;99.90;;;;;;5041849;28;20406;-57
2023/05/09 09:37:44;;;;;;;46.97;29.10;;;17.10;99.90;;;;;;5041461;28;20503;-64
2023/05/09 09:40:11;;;;;;;48.50;26.58;;;17.20;99.90;;;;;;5041498;28;20047;-63
2023/05/09 09:42:44;;;;;;;46.83;30.48;;;17.20;99.90;;;;;;5041800;28;20049;-55
2023/05/09 09:45:16;;;;;;;42.65;28.92;;;17.20;99.90;;;;;;5041725;28;20072;-58
2023/05/09 09:47:42;;;;;;;44.13;29.77;;;17.30;99.90;;;;;;5041034;28;20516;-56
2023/05/09 09:50:14;;;;;;;41.13;27.58;;;17.40;99.90;;;;;;5041752;28;20103;-65
2023/05/09 09:52:50;;;;;;;50.55;30.30;;;17.40;99.90;;;;;;5040693;28;20060;-60
2023/05/09 09:55:16;;;;;;;45.85;25.60;;;17.30;99.90;;;;;;5041637;28;20344;-61
2023/05/09 09:57:46;;;;;;;45.35;29.75;;;17.20;99.90;;;;;;5041996;28;20460;-65
2023/05/09 10:00:31;;;;;;;47.38;31.45;;;17.20;99.90;;;;;;5039667;28;20055;-62
2023/05/09 10:02:58;;;;;;;46.00;30.30;;;17.20;99.90;;;;;;5041644;28;20569;-64
2023/05/09 10:05:29;;;;;;;46.75;30.65;;;17.20;99.90;;;;;;5042362;28;20037;-61
2023/05/09 10:08:01;;;;;;;47.70;31.05;;;17.10;99.90;;;;;;5040864;28;20667;-61
2023/05/09 10:10:31;;;;;;;50.10;30.58;;;17.00;99.90;;;;;;5041169;28;20051;-60
2023/05/09 10:13:03;;;;;;;47.38;31.00;;;17.00;99.90;;;;;;5040906;28;20048;-61
2023/05/09 10:15:30;;;;;;;47.38;30.17;;;16.90;99.90;;;;;;5040425;28;20099;-66
2023/05/09 10:17:58;;;;;;;47.28;30.77;;;16.90;99.90;;;;;;5040902;28;20049;-61
2023/05/09 10:20:24;;;;;;;46.10;29.40;;;16.90;99.90;;;;;;5040820;28;20127;-60
2023/05/09 10:22:54;;;;;;;47.35;31.65;;;16.80;99.90;;;;;;5040870;28;20079;-65
2023/05/09 10:25:21;;;;;;;50.35;32.00;;;16.80;99.90;;;;;;5041453;28;20110;-66
2023/05/09 10:27:48;;;;;;;52.30;32.03;;;16.90;99.90;;;;;;5040571;28;20352;-63
2023/05/09 10:30:26;;;;;;;51.60;33.20;;;16.80;99.90;;;;;;5042113;28;20047;-59
2023/05/09 10:33:03;;;;;;;51.70;31.67;;;16.80;99.90;;;;;;5043338;28;20040;-64
2023/05/09 10:35:44;;;;;;;52.53;33.78;;;16.80;99.90;;;;;;5044242;28;20041;-63
2023/05/09 10:38:11;;;;;;;51.88;31.27;;;16.90;99.90;;;;;;5043699;28;20040;-59
2023/05/09 10:40:39;;;;;;;47.47;28.23;;;17.00;99.90;;;;;;5043760;28;20051;-54
2023/05/09 10:43:06;;;;;;;52.38;31.13;;;16.90;99.90;;;;;;5044273;28;20045;-65
2023/05/09 10:45:33;;;;;;;52.10;32.28;;;17.00;99.90;;;;;;5043995;28;20463;-63
2023/05/09 10:48:00;;;;;;;52.33;31.63;;;17.00;99.90;;;;;;5044103;28;20048;-63
2023/05/09 10:50:26;;;;;;;53.33;33.10;;;17.10;99.90;;;;;;5044405;28;20494;-66
2023/05/09 10:53:20;;;;;;;52.85;32.92;;;17.10;99.90;;;;;;5043255;28;20037;-57
2023/05/09 10:55:46;;;;;;;53.00;32.10;;;17.10;99.90;;;;;;5042181;28;20061;-62
2023/05/09 10:58:25;;;;;;;52.50;33.92;;;17.10;99.90;;;;;;5044197;28;20118;-62
2023/05/09 11:00:52;;;;;;;57.03;33.55;;;17.10;99.90;;;;;;5044144;28;20392;-58
2023/05/09 11:03:18;;;;;;;56.67;32.33;;;17.10;99.90;;;;;;5044313;28;20087;-64
2023/05/09 11:05:46;;;;;;;56.45;33.28;;;17.20;99.90;;;;;;5043747;28;20045;-60
2023/05/09 11:08:18;;;;;;;55.92;32.33;;;17.30;99.90;;;;;;5042810;28;20202;-67
2023/05/09 11:10:44;;;;;;;50.28;31.48;;;17.40;99.90;;;;;;5044261;28;20056;-57
2023/05/09 11:13:10;;;;;;;56.45;34.10;;;17.50;99.90;;;;;;5043326;28;20383;-62
2023/05/09 11:15:49;;;;;;;50.97;28.20;;;17.50;99.90;;;;;;5043814;28;20041;-58
2023/05/09 11:18:15;;;;;;;59.50;34.83;;;17.50;99.90;;;;;;5043291;28;20041;-66
2023/05/09 11:20:47;;;;;;;60.50;34.00;;;17.40;99.90;;;;;;5044238;28;20496;-54
2023/05/09 11:23:18;;;;;;;56.22;31.88;;;17.40;99.90;;;;;;5046868;28;20056;-57
2023/05/09 11:25:48;;;;;;;58.13;33.15;;;17.30;99.90;;;;;;5046687;28;20056;-57
2023/05/09 11:28:31;;;;;;;57.55;34.30;;;17.30;99.90;;;;;;5046855;28;20147;-62
2023/05/09 11:31:15;;;;;;;61.47;34.80;;;17.40;99.90;;;;;;5047624;28;20384;-65
2023/05/09 11:33:43;;;;;;;58.00;35.47;;;17.50;99.90;;;;;;5047514;28;20120;-52
2023/05/09 11:36:28;;;;;;;56.75;34.83;;;17.60;99.90;;;;;;5047101;28;20408;-53
2023/05/09 11:39:03;;;;;;;61.15;35.22;;;17.80;99.90;;;;;;5047731;28;20461;-57
2023/05/09 11:41:30;;;;;;;54.15;35.10;;;18.10;99.90;;;;;;5044840;28;20048;-55
2023/05/09 11:43:58;;;;;;;56.22;33.65;;;18.30;99.90;;;;;;5044048;28;20048;-60
2023/05/09 11:46:25;;;;;;;53.47;33.13;;;18.50;99.90;;;;;;5044327;28;20492;-54
2023/05/09 11:48:50;;;;;;;52.17;33.47;;;18.60;99.90;;;;;;5045596;28;20109;-59
2023/05/09 11:51:17;;;;;;;59.88;36.17;;;18.50;99.90;;;;;;5043384;28;20115;-58
2023/05/09 11:53:45;;;;;;;53.67;31.95;;;18.40;99.90;;;;;;5044529;28;20087;-59
2023/05/09 11:56:12;;;;;;;56.42;33.10;;;18.40;99.90;;;;;;5044591;28;20404;-64
2023/05/09 11:58:38;;;;;;;60.35;35.70;;;18.50;99.90;;;;;;5045004;28;20049;-60
2023/05/09 12:01:04;;;;;;;57.10;36.28;;;18.50;99.90;;;;;;5044501;28;20049;-61
2023/05/09 12:03:30;;;;;;;56.15;35.22;;;18.60;99.90;;;;;;5044609;28;20052;-59
2023/05/09 12:05:56;;;;;;;51.38;31.08;;;18.60;99.90;;;;;;5043328;28;20447;-57
2023/05/09 12:08:23;;;;;;;55.75;33.42;;;18.60;99.90;;;;;;5041758;28;20051;-62
2023/05/09 12:10:50;;;;;;;61.72;35.10;;;18.70;99.90;;;;;;5043160;28;20059;-58
2023/05/09 12:13:16;;;;;;;55.75;33.55;;;18.70;99.90;;;;;;5043121;28;20590;-61
2023/05/09 12:15:42;;;;;;;55.53;34.30;;;18.70;99.90;;;;;;5042039;28;20045;-61
2023/05/09 12:18:08;;;;;;;53.83;32.90;;;18.70;99.90;;;;;;5043167;28;20435;-58
2023/05/09 12:20:48;;;;;;;59.03;36.17;;;18.80;99.90;;;;;;5042964;28;20048;-63
2023/05/09 12:23:15;;;;;;;58.97;36.05;;;18.80;99.90;;;;;;5043553;28;20044;-55
2023/05/09 12:25:54;;;;;;;56.30;35.50;;;18.70;99.90;;;;;;5044173;28;20124;-64
2023/05/09 12:28:22;;;;;;;56.65;34.35;;;18.70;99.90;;;;;;5041461;28;20245;-62
2023/05/09 12:30:48;;;;;;;59.78;37.35;;;18.70;99.90;;;;;;5044040;28;20152;-59